createdAt,value
2023-05-06T00:00:06.567Z,12.81
2023-05-06T00:02:33.258Z,12.87
2023-05-06T00:05:00.154Z,12.64
2023-05-06T00:07:26.793Z,12.58
2023-05-06T00:09:53.391Z,12.66
2023-05-06T00:12:20.442Z,12.57
2023-05-06T00:14:47.072Z,12.52
2023-05-06T00:17:13.788Z,12.71
2023-05-06T00:19:44.513Z,12.85
2023-05-06T00:22:14.002Z,12.74
2023-05-06T00:24:43.535Z,12.87
2023-05-06T00:27:12.250Z,12.73
2023-05-06T00:29:38.788Z,12.57
2023-05-06T00:32:05.969Z,12.45
2023-05-06T00:34:33.020Z,12.40
2023-05-06T00:36:59.631Z,12.24
2023-05-06T00:39:26.836Z,12.40
2023-05-06T00:41:53.436Z,12.27
2023-05-06T00:44:19.982Z,12.32
2023-05-06T00:46:46.727Z,11.99
2023-05-06T00:49:16.409Z,12.07
2023-05-06T00:51:46.055Z,12.15
2023-05-06T00:54:16.414Z,12.24
2023-05-06T00:56:46.054Z,12.08
2023-05-06T00:59:15.619Z,12.09
2023-05-06T01:01:45.018Z,12.13
2023-05-06T01:04:14.837Z,12.15
2023-05-06T01:06:55.608Z,12.30
2023-05-06T01:09:54.210Z,12.36
2023-05-06T01:12:37.545Z,12.39
2023-05-06T01:15:15.069Z,12.45
2023-05-06T01:17:47.193Z,12.44
2023-05-06T01:20:18.508Z,12.40
2023-05-06T01:22:45.682Z,12.46
2023-05-06T01:25:22.873Z,12.37
2023-05-06T01:27:50.540Z,12.28
2023-05-06T01:30:18.733Z,12.25
2023-05-06T01:33:09.178Z,12.24
2023-05-06T01:35:46.040Z,12.20
2023-05-06T01:38:27.647Z,12.30
2023-05-06T01:40:57.073Z,12.37
2023-05-06T01:43:27.167Z,12.28
2023-05-06T01:45:56.097Z,12.33
2023-05-06T01:48:29.109Z,12.14
2023-05-06T01:50:55.904Z,12.13
2023-05-06T01:53:22.546Z,12.41
2023-05-06T01:55:49.236Z,12.43
2023-05-06T01:58:18.716Z,12.63
2023-05-06T02:00:47.593Z,12.41
2023-05-06T02:03:14.596Z,12.31
2023-05-06T02:05:41.890Z,12.21
2023-05-06T02:08:08.481Z,12.33
2023-05-06T02:10:35.022Z,12.08
2023-05-06T02:13:01.735Z,12.18
2023-05-06T02:15:28.336Z,11.98
2023-05-06T02:17:54.890Z,12.09
2023-05-06T02:20:21.496Z,12.33
2023-05-06T02:22:51.556Z,11.98
2023-05-06T02:25:22.731Z,12.27
2023-05-06T02:27:49.256Z,12.19
2023-05-06T02:30:15.842Z,12.20
2023-05-06T02:32:42.492Z,12.17
2023-05-06T02:35:10.053Z,12.02
2023-05-06T02:37:36.771Z,12.17
2023-05-06T02:40:04.420Z,12.21
2023-05-06T02:42:30.977Z,12.01
2023-05-06T02:44:57.573Z,12.08
2023-05-06T02:47:24.229Z,12.07
2023-05-06T02:49:50.834Z,11.98
2023-05-06T02:52:17.470Z,12.05
2023-05-06T02:54:44.486Z,12.00
2023-05-06T02:57:11.071Z,12.00
2023-05-06T02:59:37.575Z,12.18
2023-05-06T03:02:04.136Z,12.13
2023-05-06T03:04:30.887Z,11.96
2023-05-06T03:06:57.541Z,12.02
2023-05-06T03:09:24.152Z,11.60
2023-05-06T03:11:53.757Z,11.90
2023-05-06T03:14:23.106Z,11.53
2023-05-06T03:16:52.185Z,11.54
2023-05-06T03:19:18.809Z,11.68
2023-05-06T03:21:45.626Z,11.64
2023-05-06T03:24:12.201Z,11.63
2023-05-06T03:26:38.719Z,11.72
2023-05-06T03:29:05.227Z,11.63
2023-05-06T03:31:32.132Z,11.73
2023-05-06T03:33:58.704Z,11.73
2023-05-06T03:36:25.392Z,11.44
2023-05-06T03:38:54.894Z,11.57
2023-05-06T03:41:26.180Z,11.56
2023-05-06T03:43:55.828Z,11.46
2023-05-06T03:46:24.012Z,11.31
2023-05-06T03:48:51.685Z,11.25
2023-05-06T03:51:18.314Z,11.06
2023-05-06T03:53:44.864Z,11.07
2023-05-06T03:56:11.353Z,11.21
2023-05-06T03:58:37.919Z,11.32
2023-05-06T04:01:04.459Z,11.47
2023-05-06T04:03:31.137Z,11.53
2023-05-06T04:05:57.797Z,11.31
2023-05-06T04:08:27.538Z,11.26
2023-05-06T04:10:57.887Z,11.33
2023-05-06T04:13:27.534Z,11.36
2023-05-06T04:15:57.409Z,11.27
2023-05-06T04:18:27.134Z,11.25
2023-05-06T04:20:56.835Z,11.26
2023-05-06T04:23:24.499Z,11.23
2023-05-06T04:25:51.030Z,11.27
2023-05-06T04:28:17.818Z,11.29
2023-05-06T04:30:45.145Z,11.15
2023-05-06T04:33:12.601Z,11.13
2023-05-06T04:35:39.973Z,11.12
2023-05-06T04:38:06.483Z,11.06
2023-05-06T04:40:35.223Z,11.07
2023-05-06T04:43:02.983Z,11.14
2023-05-06T04:45:30.032Z,11.24
2023-05-06T04:47:59.703Z,11.18
2023-05-06T04:50:29.304Z,11.42
2023-05-06T04:52:59.093Z,11.48
2023-05-06T04:55:28.410Z,11.61
2023-05-06T04:57:58.806Z,11.72
2023-05-06T05:00:29.400Z,11.63
2023-05-06T05:02:58.842Z,11.59
2023-05-06T05:05:27.808Z,11.59
2023-05-06T05:07:57.576Z,11.74
2023-05-06T05:10:24.120Z,11.65
2023-05-06T05:12:50.846Z,11.71
2023-05-06T05:15:17.412Z,11.64
2023-05-06T05:17:44.741Z,11.64
2023-05-06T05:20:11.577Z,11.61
2023-05-06T05:22:38.248Z,11.78
2023-05-06T05:25:07.467Z,11.82
2023-05-06T05:27:34.672Z,11.92
2023-05-06T05:30:01.266Z,11.73
2023-05-06T05:32:30.895Z,11.99
2023-05-06T05:35:00.571Z,12.06
2023-05-06T05:37:29.562Z,12.01
2023-05-06T05:39:59.157Z,12.10
2023-05-06T05:42:25.687Z,12.19
2023-05-06T05:44:52.278Z,12.31
2023-05-06T05:47:18.868Z,12.25
2023-05-06T05:49:45.692Z,12.23
2023-05-06T05:52:12.216Z,12.50
2023-05-06T05:54:38.754Z,12.46
2023-05-06T05:57:05.284Z,12.64
2023-05-06T05:59:32.857Z,12.70
2023-05-06T06:02:02.619Z,12.85
2023-05-06T06:04:31.989Z,12.89
2023-05-06T06:07:00.856Z,13.04
2023-05-06T06:09:27.662Z,13.04
2023-05-06T06:11:54.661Z,13.26
2023-05-06T06:14:21.245Z,13.60
2023-05-06T06:16:47.890Z,13.67
2023-05-06T06:19:15.397Z,13.89
2023-05-06T06:21:42.023Z,13.92
2023-05-06T06:24:08.652Z,14.15
2023-05-06T06:26:35.280Z,14.22
2023-05-06T06:29:05.017Z,14.34
2023-05-06T06:31:34.977Z,14.35
2023-05-06T06:34:06.532Z,14.34
2023-05-06T06:36:33.312Z,14.49
2023-05-06T06:39:02.072Z,14.49
2023-05-06T06:41:28.665Z,14.83
2023-05-06T06:43:55.852Z,15.01
2023-05-06T06:46:22.503Z,15.16
2023-05-06T06:48:49.146Z,15.22
2023-05-06T06:51:15.724Z,15.53
2023-05-06T06:53:42.996Z,15.40
2023-05-06T06:56:12.637Z,15.55
2023-05-06T06:58:39.568Z,15.72
2023-05-06T07:01:06.286Z,15.68
2023-05-06T07:03:36.046Z,15.48
2023-05-06T07:06:04.515Z,15.29
2023-05-06T07:08:34.692Z,15.41
2023-05-06T07:11:02.674Z,15.46
2023-05-06T07:13:29.285Z,15.54
2023-05-06T07:15:58.833Z,15.89
2023-05-06T07:18:25.359Z,15.94
2023-05-06T07:20:52.001Z,15.94
2023-05-06T07:23:18.575Z,15.98
2023-05-06T07:25:45.145Z,15.89
2023-05-06T07:28:17.422Z,16.14
2023-05-06T07:30:44.056Z,16.42
2023-05-06T07:33:10.797Z,16.31
2023-05-06T07:35:37.750Z,16.28
2023-05-06T07:38:06.873Z,16.40
2023-05-06T07:40:36.161Z,16.59
2023-05-06T07:43:07.236Z,16.81
2023-05-06T07:45:37.025Z,17.09
2023-05-06T07:48:06.906Z,16.94
2023-05-06T07:50:37.379Z,17.11
2023-05-06T07:53:06.859Z,17.07
2023-05-06T07:55:37.874Z,17.39
2023-05-06T07:58:05.942Z,17.76
2023-05-06T08:00:34.741Z,17.96
2023-05-06T08:03:01.804Z,18.05
2023-05-06T08:05:28.745Z,17.77
2023-05-06T08:07:56.001Z,17.59
2023-05-06T08:10:23.169Z,17.46
2023-05-06T08:12:50.134Z,17.55
2023-05-06T08:15:17.352Z,17.76
2023-05-06T08:17:43.877Z,18.19
2023-05-06T08:20:11.303Z,18.75
2023-05-06T08:22:37.892Z,19.08
2023-05-06T08:25:07.770Z,19.44
2023-05-06T08:27:37.364Z,19.88
2023-05-06T08:30:07.286Z,20.08
2023-05-06T08:32:36.968Z,20.30
2023-05-06T08:35:07.996Z,20.29
2023-05-06T08:37:37.594Z,20.36
2023-05-06T08:40:35.392Z,20.60
2023-05-06T08:43:07.399Z,20.76
2023-05-06T08:45:36.998Z,21.01
2023-05-06T08:48:07.891Z,21.46
2023-05-06T08:50:42.383Z,21.82
2023-05-06T08:53:13.405Z,21.94
2023-05-06T08:55:44.178Z,22.23
2023-05-06T08:58:13.408Z,22.41
2023-05-06T09:00:40.274Z,22.54
2023-05-06T09:03:06.957Z,22.83
2023-05-06T09:05:37.214Z,23.25
2023-05-06T09:08:07.339Z,23.92
2023-05-06T09:10:44.978Z,24.54
2023-05-06T09:13:16.872Z,24.96
2023-05-06T09:15:49.378Z,25.33
2023-05-06T09:18:16.782Z,25.87
2023-05-06T09:20:48.919Z,26.38
2023-05-06T09:23:17.339Z,26.71
2023-05-06T09:25:46.538Z,26.96
2023-05-06T09:28:14.324Z,27.05
2023-05-06T09:30:43.221Z,27.36
2023-05-06T09:33:10.840Z,27.68
2023-05-06T09:35:42.962Z,27.96
2023-05-06T09:38:10.621Z,27.80
2023-05-06T09:40:38.615Z,27.78
2023-05-06T09:43:10.151Z,27.87
2023-05-06T09:45:36.780Z,28.16
2023-05-06T09:48:06.766Z,28.48
2023-05-06T09:50:35.437Z,28.81
2023-05-06T09:53:08.071Z,29.03
2023-05-06T09:55:38.000Z,28.21
2023-05-06T09:58:08.536Z,28.83
2023-05-06T10:00:36.449Z,29.34
2023-05-06T10:03:09.543Z,29.45
2023-05-06T10:05:37.401Z,29.74
2023-05-06T10:08:09.241Z,29.99
2023-05-06T10:10:37.891Z,30.02
2023-05-06T10:13:08.274Z,29.81
2023-05-06T10:15:39.029Z,29.91
2023-05-06T10:18:09.533Z,29.66
2023-05-06T10:20:36.861Z,29.52
2023-05-06T10:23:40.384Z,30.07
2023-05-06T10:26:12.144Z,30.33
2023-05-06T10:28:46.845Z,30.68
2023-05-06T10:31:14.229Z,30.71
2023-05-06T10:33:42.598Z,31.03
2023-05-06T10:36:27.889Z,31.28
2023-05-06T10:39:00.755Z,31.23
2023-05-06T10:41:30.045Z,30.73
2023-05-06T10:43:57.604Z,30.58
2023-05-06T10:46:28.239Z,30.77
2023-05-06T10:49:08.543Z,31.06
2023-05-06T10:51:38.924Z,31.28
2023-05-06T10:54:18.686Z,30.99
2023-05-06T10:56:47.977Z,30.92
2023-05-06T10:59:14.686Z,30.73
2023-05-06T11:01:44.895Z,29.67
2023-05-06T11:04:13.187Z,30.02
2023-05-06T11:06:48.892Z,30.69
2023-05-06T11:09:23.213Z,31.09
2023-05-06T11:11:58.272Z,31.18
2023-05-06T11:14:37.875Z,31.36
2023-05-06T11:17:28.479Z,31.62
2023-05-06T11:20:35.494Z,31.86
2023-05-06T11:23:02.180Z,31.84
2023-05-06T11:25:42.494Z,32.16
2023-05-06T11:28:11.635Z,32.31
2023-05-06T11:30:41.250Z,32.17
2023-05-06T11:33:09.059Z,31.96
2023-05-06T11:35:38.428Z,31.48
2023-05-06T11:38:07.807Z,31.03
2023-05-06T11:40:35.183Z,31.00
2023-05-06T11:43:11.099Z,31.45
2023-05-06T11:45:45.735Z,32.11
2023-05-06T11:48:16.744Z,32.55
2023-05-06T11:50:47.864Z,32.71
2023-05-06T11:53:18.812Z,32.48
2023-05-06T11:55:46.696Z,31.76
2023-05-06T11:58:19.889Z,31.36
2023-05-06T12:00:51.946Z,31.57
2023-05-06T12:03:19.947Z,32.28
2023-05-06T12:05:48.443Z,32.48
2023-05-06T12:08:27.516Z,32.88
2023-05-06T12:10:58.324Z,33.22
2023-05-06T12:13:25.084Z,33.38
2023-05-06T12:15:58.717Z,33.39
2023-05-06T12:18:26.078Z,33.68
2023-05-06T12:20:57.680Z,33.62
2023-05-06T12:23:27.394Z,33.34
2023-05-06T12:28:27.005Z,31.83
2023-05-06T12:30:53.822Z,31.45
2023-05-06T12:33:21.379Z,31.45
2023-05-06T12:35:48.263Z,32.22
2023-05-06T12:38:16.594Z,32.88
2023-05-06T12:40:45.019Z,33.62
2023-05-06T12:43:12.634Z,33.40
2023-05-06T12:45:39.811Z,33.22
2023-05-06T12:48:18.372Z,33.38
2023-05-06T12:50:46.630Z,33.60
2023-05-06T12:53:13.441Z,33.81
2023-05-06T12:55:42.216Z,34.07
2023-05-06T12:58:18.992Z,34.06
2023-05-06T13:00:45.527Z,33.31
2023-05-06T13:03:13.495Z,32.81
2023-05-06T13:05:40.073Z,32.39
2023-05-06T13:08:06.607Z,31.72
2023-05-06T13:10:35.514Z,31.15
2023-05-06T13:13:02.246Z,30.79
2023-05-06T13:15:28.964Z,31.18
2023-05-06T13:17:57.256Z,31.90
2023-05-06T13:20:23.896Z,32.62
2023-05-06T13:22:54.774Z,33.32
2023-05-06T13:25:22.000Z,33.67
2023-05-06T13:27:48.740Z,33.59
2023-05-06T13:30:15.393Z,33.02
2023-05-06T13:32:42.293Z,32.07
2023-05-06T13:35:09.470Z,31.80
2023-05-06T13:37:36.148Z,31.73
2023-05-06T13:40:05.823Z,31.89
2023-05-06T13:42:32.603Z,32.18
2023-05-06T13:44:59.383Z,32.34
2023-05-06T13:47:26.972Z,32.50
2023-05-06T13:49:53.551Z,33.00
2023-05-06T13:52:20.642Z,33.17
2023-05-06T13:54:47.129Z,32.91
2023-05-06T13:57:13.602Z,32.55
2023-05-06T13:59:40.083Z,31.74
2023-05-06T14:02:10.158Z,30.97
2023-05-06T14:04:39.660Z,30.49
2023-05-06T14:07:09.943Z,30.40
2023-05-06T14:09:39.894Z,30.44
2023-05-06T14:12:09.469Z,30.56
2023-05-06T14:14:39.464Z,30.89
2023-05-06T14:17:10.177Z,31.37
2023-05-06T14:19:40.080Z,31.47
2023-05-06T14:22:10.563Z,31.16
2023-05-06T14:24:38.923Z,30.43
2023-05-06T14:27:12.725Z,29.96
2023-05-06T14:29:43.016Z,29.36
2023-05-06T14:32:09.670Z,29.08
2023-05-06T14:34:37.824Z,28.72
2023-05-06T14:37:04.799Z,28.31
2023-05-06T14:39:31.710Z,28.03
2023-05-06T14:41:58.205Z,27.64
2023-05-06T14:44:24.861Z,27.43
2023-05-06T14:46:51.377Z,27.83
2023-05-06T14:49:18.033Z,27.51
2023-05-06T14:51:45.029Z,28.13
2023-05-06T14:54:11.475Z,28.27
2023-05-06T14:56:41.358Z,28.22
2023-05-06T14:59:11.035Z,28.07
2023-05-06T15:01:38.928Z,28.16
2023-05-06T15:04:09.115Z,28.03
2023-05-06T15:06:36.060Z,28.08
2023-05-06T15:09:04.620Z,28.19
2023-05-06T15:11:32.060Z,27.88
2023-05-06T15:13:58.535Z,27.65
2023-05-06T15:16:25.002Z,27.41
2023-05-06T15:18:51.545Z,27.15
2023-05-06T15:21:18.018Z,27.26
2023-05-06T15:23:46.624Z,27.54
2023-05-06T15:26:13.356Z,27.52
2023-05-06T15:28:39.806Z,27.42
2023-05-06T15:31:06.365Z,27.26
2023-05-06T15:33:32.868Z,27.27
2023-05-06T15:35:59.413Z,27.22
2023-05-06T15:38:25.886Z,27.21
2023-05-06T15:40:52.687Z,27.30
2023-05-06T15:43:23.670Z,27.52
2023-05-06T15:45:51.909Z,27.60
2023-05-06T15:48:18.587Z,27.66
2023-05-06T15:50:45.432Z,27.59
2023-05-06T15:53:11.912Z,27.52
2023-05-06T15:55:46.919Z,27.65
2023-05-06T15:58:19.291Z,27.59
2023-05-06T16:00:45.900Z,27.62
2023-05-06T16:03:12.910Z,27.84
2023-05-06T16:05:42.925Z,27.61
2023-05-06T16:08:09.785Z,27.41
2023-05-06T16:10:36.297Z,27.14
2023-05-06T16:13:02.938Z,27.12
2023-05-06T16:15:29.496Z,27.03
2023-05-06T16:17:56.054Z,26.81
2023-05-06T16:20:22.673Z,26.40
2023-05-06T16:22:50.864Z,26.22
2023-05-06T16:25:17.380Z,25.97
2023-05-06T16:27:43.946Z,25.48
2023-05-06T16:30:12.450Z,25.19
2023-05-06T16:32:39.143Z,25.15
2023-05-06T16:35:06.056Z,24.97
2023-05-06T16:37:32.552Z,24.79
2023-05-06T16:39:59.060Z,24.73
2023-05-06T16:42:25.726Z,24.67
2023-05-06T16:44:52.376Z,24.56
2023-05-06T16:50:20.660Z,24.54
2023-05-06T16:52:47.637Z,24.50
2023-05-06T16:55:14.536Z,24.43
2023-05-06T16:57:43.343Z,24.64
2023-05-06T17:00:13.983Z,24.57
2023-05-06T17:02:40.947Z,24.58
2023-05-06T17:05:08.183Z,24.60
2023-05-06T17:07:35.445Z,24.53
2023-05-06T17:10:02.143Z,24.68
2023-05-06T17:12:28.828Z,24.76
2023-05-06T17:14:55.423Z,24.72
2023-05-06T17:17:25.031Z,24.63
2023-05-06T17:19:51.876Z,24.63
2023-05-06T17:22:21.351Z,24.50
2023-05-06T17:24:50.388Z,24.57
2023-05-06T17:27:44.752Z,24.70
2023-05-06T17:30:12.252Z,24.29
2023-05-06T17:32:40.839Z,24.02
2023-05-06T17:35:10.547Z,23.91
2023-05-06T17:37:39.974Z,23.66
2023-05-06T17:40:24.634Z,23.49
2023-05-06T17:43:00.440Z,23.38
2023-05-06T17:49:02.865Z,23.39
2023-05-06T17:51:53.890Z,22.98
2023-05-06T17:54:20.546Z,23.00
2023-05-06T17:59:39.394Z,23.06
2023-05-06T18:04:54.838Z,22.88
2023-05-06T18:07:22.556Z,22.64
2023-05-06T18:09:52.504Z,22.47
2023-05-06T18:12:40.876Z,22.54
2023-05-06T18:17:53.498Z,22.29
2023-05-06T18:20:20.126Z,22.30
2023-05-06T18:25:27.746Z,22.09
2023-05-06T18:30:52.486Z,22.02
2023-05-06T18:33:22.392Z,21.84
2023-05-06T18:36:25.093Z,21.78
2023-05-06T18:38:59.285Z,21.73
2023-05-06T18:41:26.101Z,21.47
2023-05-06T18:43:56.126Z,21.39
2023-05-06T18:46:30.534Z,21.29
2023-05-06T18:49:01.053Z,21.25
2023-05-06T18:51:38.279Z,21.32
2023-05-06T18:54:05.414Z,21.22
2023-05-06T18:56:32.091Z,21.19
2023-05-06T18:58:58.891Z,20.84
2023-05-06T19:01:29.722Z,20.78
2023-05-06T19:10:25.218Z,20.82
2023-05-06T19:12:52.741Z,20.83
2023-05-06T19:15:20.526Z,20.69
2023-05-06T19:17:48.740Z,20.61
2023-05-06T19:20:15.527Z,20.56
2023-05-06T19:22:42.382Z,20.60
2023-05-06T19:25:12.513Z,20.59
2023-05-06T19:28:06.317Z,20.64
2023-05-06T19:30:55.477Z,20.61
2023-05-06T19:33:22.091Z,20.40
2023-05-06T19:35:52.232Z,20.48
2023-05-06T19:38:21.999Z,20.26
2023-05-06T19:40:51.488Z,20.17
2023-05-06T19:43:20.476Z,20.26
2023-05-06T19:45:46.973Z,20.31
2023-05-06T19:48:14.644Z,20.26
2023-05-06T19:50:41.561Z,20.25
2023-05-06T19:53:08.160Z,20.10
2023-05-06T19:55:35.100Z,20.19
2023-05-06T19:58:02.319Z,20.02
2023-05-06T20:00:31.515Z,20.05
2023-05-06T20:03:00.008Z,20.02
2023-05-06T20:05:31.386Z,19.89
2023-05-06T20:08:01.402Z,20.02
2023-05-06T20:10:28.663Z,19.84
2023-05-06T20:12:57.624Z,19.97
2023-05-06T20:15:24.773Z,19.80
2023-05-06T20:17:54.430Z,19.59
2023-05-06T20:20:24.370Z,19.81
2023-05-06T20:22:54.052Z,19.56
2023-05-06T20:25:23.528Z,19.79
2023-05-06T20:27:52.960Z,19.66
2023-05-06T20:30:20.586Z,19.50
2023-05-06T20:32:47.969Z,19.59
2023-05-06T20:35:16.676Z,19.42
2023-05-06T20:37:44.143Z,19.47
2023-05-06T20:40:11.175Z,19.41
2023-05-06T20:42:37.968Z,19.24
2023-05-06T20:45:05.204Z,19.04
2023-05-06T20:47:31.860Z,19.16
2023-05-06T20:49:58.609Z,18.87
2023-05-06T20:52:25.172Z,18.90
2023-05-06T20:54:52.546Z,19.15
2023-05-06T20:57:21.502Z,19.05
2023-05-06T20:59:51.880Z,19.12
2023-05-06T21:02:18.527Z,18.92
2023-05-06T21:04:45.082Z,19.23
2023-05-06T21:07:11.674Z,18.99
2023-05-06T21:09:38.435Z,19.19
2023-05-06T21:12:05.212Z,19.17
2023-05-06T21:14:31.862Z,19.11
2023-05-06T21:16:58.505Z,19.12
2023-05-06T21:19:25.065Z,18.91
2023-05-06T21:22:06.423Z,18.81
2023-05-06T21:24:34.398Z,18.82
2023-05-06T21:27:01.510Z,18.90
2023-05-06T21:29:28.363Z,18.96
2023-05-06T21:31:55.092Z,18.83
2023-05-06T21:34:22.882Z,19.00
2023-05-06T21:36:49.470Z,18.87
2023-05-06T21:39:16.362Z,18.95
2023-05-06T21:41:43.006Z,18.76
2023-05-06T21:44:10.286Z,18.86
2023-05-06T21:46:37.797Z,18.90
2023-05-06T21:49:27.829Z,18.91
2023-05-06T21:51:55.520Z,18.88
2023-05-06T21:54:25.424Z,18.94
2023-05-06T21:56:56.020Z,19.03
2023-05-06T21:59:24.766Z,19.00
2023-05-06T22:01:51.358Z,18.75
2023-05-06T22:04:19.980Z,18.53
2023-05-06T22:06:46.533Z,18.18
2023-05-06T22:09:13.195Z,17.62
2023-05-06T22:11:39.768Z,17.67
2023-05-06T22:14:06.863Z,17.52
2023-05-06T22:16:35.318Z,17.16
2023-05-06T22:19:02.165Z,16.87
2023-05-06T22:21:30.560Z,16.20
2023-05-06T22:23:57.396Z,15.83
2023-05-06T22:26:30.379Z,15.21
2023-05-06T22:28:56.956Z,15.02
2023-05-06T22:31:25.829Z,14.80
2023-05-06T22:33:57.702Z,14.59
2023-05-06T22:36:29.656Z,14.61
2023-05-06T22:38:56.710Z,14.51
2023-05-06T22:41:23.247Z,14.13
2023-05-06T22:43:49.861Z,14.23
2023-05-06T22:46:16.782Z,14.30
2023-05-06T22:48:46.412Z,14.14
2023-05-06T22:51:15.785Z,14.26
2023-05-06T22:53:42.374Z,13.95
2023-05-06T22:56:09.334Z,14.07
2023-05-06T22:58:36.163Z,13.82
2023-05-06T23:01:02.986Z,13.71
2023-05-06T23:03:29.655Z,14.04
2023-05-06T23:05:59.718Z,14.58
2023-05-06T23:08:28.301Z,14.80
2023-05-06T23:10:54.892Z,15.00
2023-05-06T23:13:21.568Z,14.99
2023-05-06T23:15:48.241Z,14.92
2023-05-06T23:18:14.921Z,14.86
2023-05-06T23:20:42.205Z,14.93
2023-05-06T23:23:10.740Z,14.95
2023-05-06T23:25:37.428Z,14.84
2023-05-06T23:28:04.250Z,14.62
2023-05-06T23:30:31.034Z,14.69
2023-05-06T23:33:01.746Z,14.91
2023-05-06T23:35:32.221Z,14.92
2023-05-06T23:38:01.850Z,15.04
2023-05-06T23:40:31.265Z,15.43
2023-05-06T23:42:59.939Z,15.52
2023-05-06T23:45:26.917Z,15.51
2023-05-06T23:47:54.378Z,15.26
2023-05-06T23:50:20.999Z,15.24
2023-05-06T23:52:47.567Z,15.31
2023-05-06T23:55:14.335Z,15.05
2023-05-06T23:57:41.032Z,15.00
